sensor_id;sensor_type;location;lat;lon;timestamp;pressure;altitude;pressure_sealevel;temperature;humidity
26823;BME280;14852;51.910;8.878;2023-04-23T00:00:51;98884.03;;;17.38;53.27
26823;BME280;14852;51.910;8.878;2023-04-23T00:03:17;98887.53;;;17.29;53.66
26823;BME280;14852;51.910;8.878;2023-04-23T00:05:44;98882.00;;;17.23;53.83
26823;BME280;14852;51.910;8.878;2023-04-23T00:08:10;98881.31;;;17.21;53.50
26823;BME280;14852;51.910;8.878;2023-04-23T00:10:36;98882.06;;;17.13;53.79
26823;BME280;14852;51.910;8.878;2023-04-23T00:13:02;98883.84;;;17.13;53.67
26823;BME280;14852;51.910;8.878;2023-04-23T00:15:29;98883.28;;;17.09;53.84
26823;BME280;14852;51.910;8.878;2023-04-23T00:17:55;98873.25;;;17.05;53.85
26823;BME280;14852;51.910;8.878;2023-04-23T00:20:21;98873.94;;;16.97;53.76
26823;BME280;14852;51.910;8.878;2023-04-23T00:22:47;98868.44;;;16.90;54.08
26823;BME280;14852;51.910;8.878;2023-04-23T00:25:13;98874.25;;;16.84;54.59
26823;BME280;14852;51.910;8.878;2023-04-23T00:27:39;98872.44;;;16.85;54.15
26823;BME280;14852;51.910;8.878;2023-04-23T00:30:05;98877.03;;;16.83;54.54
26823;BME280;14852;51.910;8.878;2023-04-23T00:32:32;98871.66;;;16.84;54.36
26823;BME280;14852;51.910;8.878;2023-04-23T00:34:59;98870.50;;;16.87;54.09
26823;BME280;14852;51.910;8.878;2023-04-23T00:37:25;98873.97;;;16.87;54.11
26823;BME280;14852;51.910;8.878;2023-04-23T00:39:51;98879.34;;;16.86;54.25
26823;BME280;14852;51.910;8.878;2023-04-23T00:42:17;98874.25;;;16.84;54.21
26823;BME280;14852;51.910;8.878;2023-04-23T00:44:42;98871.66;;;16.84;54.31
26823;BME280;14852;51.910;8.878;2023-04-23T00:47:09;98868.19;;;16.84;54.59
26823;BME280;14852;51.910;8.878;2023-04-23T00:49:36;98865.56;;;16.84;54.57
26823;BME280;14852;51.910;8.878;2023-04-23T00:52:04;98871.66;;;16.84;54.83
26823;BME280;14852;51.910;8.878;2023-04-23T00:54:30;98877.03;;;16.83;54.82
26823;BME280;14852;51.910;8.878;2023-04-23T00:56:56;98882.53;;;16.80;54.72
26823;BME280;14852;51.910;8.878;2023-04-23T00:59:26;98869.69;;;16.77;54.88
26823;BME280;14852;51.910;8.878;2023-04-23T01:01:55;98873.97;;;16.78;55.02
26823;BME280;14852;51.910;8.878;2023-04-23T01:04:21;98867.22;;;16.75;54.76
26823;BME280;14852;51.910;8.878;2023-04-23T01:06:49;98875.22;;;16.74;54.68
26823;BME280;14852;51.910;8.878;2023-04-23T01:09:15;98868.34;;;16.73;55.02
26823;BME280;14852;51.910;8.878;2023-04-23T01:11:43;98869.31;;;16.72;54.83
26823;BME280;14852;51.910;8.878;2023-04-23T01:14:10;98871.38;;;16.68;55.32
26823;BME280;14852;51.910;8.878;2023-04-23T01:16:36;98863.91;;;16.63;55.40
26823;BME280;14852;51.910;8.878;2023-04-23T01:19:08;98865.81;;;16.61;55.51
26823;BME280;14852;51.910;8.878;2023-04-23T01:21:36;98868.59;;;16.60;55.55
26823;BME280;14852;51.910;8.878;2023-04-23T01:24:03;98872.75;;;16.62;55.15
26823;BME280;14852;51.910;8.878;2023-04-23T01:26:30;98871.06;;;16.61;55.85
26823;BME280;14852;51.910;8.878;2023-04-23T01:28:56;98873.03;;;16.59;55.64
26823;BME280;14852;51.910;8.878;2023-04-23T01:31:23;98876.59;;;16.58;55.59
26823;BME280;14852;51.910;8.878;2023-04-23T01:33:50;98876.47;;;16.60;55.52
26823;BME280;14852;51.910;8.878;2023-04-23T01:36:18;98884.47;;;16.58;55.65
26823;BME280;14852;51.910;8.878;2023-04-23T01:38:44;98886.41;;;16.56;55.55
26823;BME280;14852;51.910;8.878;2023-04-23T01:41:10;98887.25;;;16.57;55.42
26823;BME280;14852;51.910;8.878;2023-04-23T01:43:36;98886.28;;;16.58;55.58
26823;BME280;14852;51.910;8.878;2023-04-23T01:46:02;98877.56;;;16.57;55.35
26823;BME280;14852;51.910;8.878;2023-04-23T01:48:29;98887.50;;;16.54;55.23
26823;BME280;14852;51.910;8.878;2023-04-23T01:50:55;98885.59;;;16.46;55.20
26823;BME280;14852;51.910;8.878;2023-04-23T01:53:21;98892.19;;;16.41;55.29
26823;BME280;14852;51.910;8.878;2023-04-23T01:55:47;98886.41;;;16.37;55.60
26823;BME280;14852;51.910;8.878;2023-04-23T01:58:15;98892.19;;;16.31;55.84
26823;BME280;14852;51.910;8.878;2023-04-23T02:00:41;98893.84;;;16.22;55.22
26823;BME280;14852;51.910;8.878;2023-04-23T02:03:06;98901.41;;;16.16;55.26
26823;BME280;14852;51.910;8.878;2023-04-23T02:05:34;98901.03;;;16.11;55.62
26823;BME280;14852;51.910;8.878;2023-04-23T02:08:02;98897.97;;;16.06;55.67
26823;BME280;14852;51.910;8.878;2023-04-23T02:10:27;98898.38;;;16.01;55.66
26823;BME280;14852;51.910;8.878;2023-04-23T02:12:56;98899.75;;;15.96;55.97
26823;BME280;14852;51.910;8.878;2023-04-23T02:15:22;98902.78;;;15.91;55.57
26823;BME280;14852;51.910;8.878;2023-04-23T02:17:48;98899.84;;;15.84;55.59
26823;BME280;14852;51.910;8.878;2023-04-23T02:20:17;98897.66;;;15.80;55.95
26823;BME280;14852;51.910;8.878;2023-04-23T02:22:44;98899.84;;;15.75;55.63
26823;BME280;14852;51.910;8.878;2023-04-23T02:25:11;98899.25;;;15.71;55.85
26823;BME280;14852;51.910;8.878;2023-04-23T02:27:40;98895.16;;;15.69;55.41
26823;BME280;14852;51.910;8.878;2023-04-23T02:30:07;98899.81;;;15.65;55.38
26823;BME280;14852;51.910;8.878;2023-04-23T02:32:35;98898.41;;;15.61;55.83
26823;BME280;14852;51.910;8.878;2023-04-23T02:35:01;98893.59;;;15.56;55.99
26823;BME280;14852;51.910;8.878;2023-04-23T02:37:28;98896.69;;;15.50;55.72
26823;BME280;14852;51.910;8.878;2023-04-23T02:39:54;98894.31;;;15.47;56.09
26823;BME280;14852;51.910;8.878;2023-04-23T02:42:20;98895.69;;;15.42;55.87
26823;BME280;14852;51.910;8.878;2023-04-23T02:44:46;98896.78;;;15.39;56.08
26823;BME280;14852;51.910;8.878;2023-04-23T02:47:12;98890.97;;;15.36;55.90
26823;BME280;14852;51.910;8.878;2023-04-23T02:49:37;98901.59;;;15.34;55.79
26823;BME280;14852;51.910;8.878;2023-04-23T02:52:03;98902.56;;;15.33;56.16
26823;BME280;14852;51.910;8.878;2023-04-23T02:54:29;98897.44;;;15.32;55.91
26823;BME280;14852;51.910;8.878;2023-04-23T02:56:57;98912.31;;;15.31;55.68
26823;BME280;14852;51.910;8.878;2023-04-23T02:59:24;98909.84;;;15.30;55.85
26823;BME280;14852;51.910;8.878;2023-04-23T03:01:50;98916.84;;;15.29;55.63
26823;BME280;14852;51.910;8.878;2023-04-23T03:04:17;98921.00;;;15.32;55.96
26823;BME280;14852;51.910;8.878;2023-04-23T03:06:43;98921.00;;;15.32;55.82
26823;BME280;14852;51.910;8.878;2023-04-23T03:09:09;98922.66;;;15.33;55.92
26823;BME280;14852;51.910;8.878;2023-04-23T03:11:36;98917.56;;;15.31;55.81
26823;BME280;14852;51.910;8.878;2023-04-23T03:14:02;98920.44;;;15.28;55.85
26823;BME280;14852;51.910;8.878;2023-04-23T03:16:29;98924.84;;;15.28;55.39
26823;BME280;14852;51.910;8.878;2023-04-23T03:18:56;98925.91;;;15.25;55.63
26823;BME280;14852;51.910;8.878;2023-04-23T03:21:22;98926.31;;;15.20;55.37
26823;BME280;14852;51.910;8.878;2023-04-23T03:23:48;98932.06;;;15.14;56.15
26823;BME280;14852;51.910;8.878;2023-04-23T03:26:14;98932.47;;;15.10;55.69
26823;BME280;14852;51.910;8.878;2023-04-23T03:28:40;98937.81;;;15.08;56.19
26823;BME280;14852;51.910;8.878;2023-04-23T03:31:06;98941.38;;;15.07;55.75
26823;BME280;14852;51.910;8.878;2023-04-23T03:33:32;98942.34;;;15.06;55.74
26823;BME280;14852;51.910;8.878;2023-04-23T03:35:58;98945.91;;;15.05;55.90
26823;BME280;14852;51.910;8.878;2023-04-23T03:38:28;98942.47;;;15.05;55.83
26823;BME280;14852;51.910;8.878;2023-04-23T03:40:56;98954.13;;;15.01;56.05
26823;BME280;14852;51.910;8.878;2023-04-23T03:43:22;98958.53;;;15.00;55.92
26823;BME280;14852;51.910;8.878;2023-04-23T03:46:13;98957.03;;;14.98;55.89
26823;BME280;14852;51.910;8.878;2023-04-23T03:48:41;98957.84;;;14.98;56.08
26823;BME280;14852;51.910;8.878;2023-04-23T03:51:12;98953.72;;;14.96;55.53
26823;BME280;14852;51.910;8.878;2023-04-23T03:53:43;98958.09;;;14.95;55.77
26823;BME280;14852;51.910;8.878;2023-04-23T03:56:27;98954.91;;;14.92;55.56
26823;BME280;14852;51.910;8.878;2023-04-23T03:59:11;98955.16;;;14.89;55.72
26823;BME280;14852;51.910;8.878;2023-04-23T04:01:37;98950.19;;;14.85;55.78
26823;BME280;14852;51.910;8.878;2023-04-23T04:04:03;98951.38;;;14.81;56.06
26823;BME280;14852;51.910;8.878;2023-04-23T04:06:31;98955.78;;;14.81;55.58
26823;BME280;14852;51.910;8.878;2023-04-23T04:08:57;98945.72;;;14.76;55.71
26823;BME280;14852;51.910;8.878;2023-04-23T04:11:23;98943.34;;;14.73;55.80
26823;BME280;14852;51.910;8.878;2023-04-23T04:13:48;98947.63;;;14.74;55.92
26823;BME280;14852;51.910;8.878;2023-04-23T04:16:14;98946.94;;;14.72;55.77
26823;BME280;14852;51.910;8.878;2023-04-23T04:18:40;98961.78;;;14.72;56.04
26823;BME280;14852;51.910;8.878;2023-04-23T04:21:06;98949.66;;;14.71;55.73
26823;BME280;14852;51.910;8.878;2023-04-23T04:23:32;98949.53;;;14.72;55.79
26823;BME280;14852;51.910;8.878;2023-04-23T04:25:58;98957.97;;;14.76;55.81
26823;BME280;14852;51.910;8.878;2023-04-23T04:28:24;98958.81;;;14.76;55.35
26823;BME280;14852;51.910;8.878;2023-04-23T04:30:51;98956.19;;;14.76;55.59
26823;BME280;14852;51.910;8.878;2023-04-23T04:33:19;98959.59;;;14.77;55.96
26823;BME280;14852;51.910;8.878;2023-04-23T04:35:45;98961.53;;;14.75;55.53
26823;BME280;14852;51.910;8.878;2023-04-23T04:38:13;98957.97;;;14.76;55.28
26823;BME280;14852;51.910;8.878;2023-04-23T04:40:39;98960.44;;;14.77;55.60
26823;BME280;14852;51.910;8.878;2023-04-23T04:43:05;98951.63;;;14.78;55.28
26823;BME280;14852;51.910;8.878;2023-04-23T04:45:31;98957.69;;;14.79;55.23
26823;BME280;14852;51.910;8.878;2023-04-23T04:47:57;98960.44;;;14.77;55.67
26823;BME280;14852;51.910;8.878;2023-04-23T04:50:23;98950.38;;;14.73;55.56
26823;BME280;14852;51.910;8.878;2023-04-23T04:52:49;98958.94;;;14.75;55.58
26823;BME280;14852;51.910;8.878;2023-04-23T04:55:15;98958.09;;;14.74;55.45
26823;BME280;14852;51.910;8.878;2023-04-23T04:57:40;98962.75;;;14.71;55.73
26823;BME280;14852;51.910;8.878;2023-04-23T05:00:27;98957.25;;;14.74;55.32
26823;BME280;14852;51.910;8.878;2023-04-23T05:02:55;98960.72;;;14.74;55.36
26823;BME280;14852;51.910;8.878;2023-04-23T05:05:23;98957.69;;;14.79;55.50
26823;BME280;14852;51.910;8.878;2023-04-23T05:07:49;98955.91;;;14.79;55.19
26823;BME280;14852;51.910;8.878;2023-04-23T05:10:15;98961.16;;;14.79;55.53
26823;BME280;14852;51.910;8.878;2023-04-23T05:12:42;98954.97;;;14.80;55.73
26823;BME280;14852;51.910;8.878;2023-04-23T05:15:10;98958.28;;;14.82;55.32
26823;BME280;14852;51.910;8.878;2023-04-23T05:17:38;98952.09;;;14.83;55.84
26823;BME280;14852;51.910;8.878;2023-04-23T05:20:05;98958.41;;;14.81;55.49
26823;BME280;14852;51.910;8.878;2023-04-23T05:22:30;98957.38;;;14.72;55.46
26823;BME280;14852;51.910;8.878;2023-04-23T05:24:56;98958.81;;;14.65;55.85
26823;BME280;14852;51.910;8.878;2023-04-23T05:27:22;98965.88;;;14.65;55.86
26823;BME280;14852;51.910;8.878;2023-04-23T05:29:48;98962.53;;;14.63;55.82
26823;BME280;14852;51.910;8.878;2023-04-23T05:32:14;98956.72;;;14.59;56.21
26823;BME280;14852;51.910;8.878;2023-04-23T05:34:40;98956.00;;;14.57;55.90
26823;BME280;14852;51.910;8.878;2023-04-23T05:37:05;98958.38;;;14.60;55.97
26823;BME280;14852;51.910;8.878;2023-04-23T05:39:31;98946.09;;;14.72;55.99
26823;BME280;14852;51.910;8.878;2023-04-23T05:41:57;98948.78;;;14.81;55.71
26823;BME280;14852;51.910;8.878;2023-04-23T05:44:23;98945.28;;;14.92;55.94
26823;BME280;14852;51.910;8.878;2023-04-23T05:46:49;98936.28;;;15.06;55.58
26823;BME280;14852;51.910;8.878;2023-04-23T05:49:14;98942.97;;;15.19;55.25
26823;BME280;14852;51.910;8.878;2023-04-23T05:51:40;98947.34;;;15.40;54.74
26823;BME280;14852;51.910;8.878;2023-04-23T05:54:06;98947.53;;;15.69;54.05
26823;BME280;14852;51.910;8.878;2023-04-23T05:56:32;98958.22;;;16.06;53.49
26823;BME280;14852;51.910;8.878;2023-04-23T05:58:58;98952.75;;;16.28;52.93
26823;BME280;14852;51.910;8.878;2023-04-23T06:01:23;98950.19;;;16.38;52.56
26823;BME280;14852;51.910;8.878;2023-04-23T06:03:49;98961.06;;;16.33;53.11
26823;BME280;14852;51.910;8.878;2023-04-23T06:06:15;98954.72;;;16.36;53.04
26823;BME280;14852;51.910;8.878;2023-04-23T06:08:41;98953.34;;;16.41;53.01
26823;BME280;14852;51.910;8.878;2023-04-23T06:11:07;98957.63;;;16.52;52.48
26823;BME280;14852;51.910;8.878;2023-04-23T06:13:32;98960.00;;;16.64;52.26
26823;BME280;14852;51.910;8.878;2023-04-23T06:16:01;98956.69;;;16.62;51.81
26823;BME280;14852;51.910;8.878;2023-04-23T06:18:27;98954.59;;;16.47;52.22
26823;BME280;14852;51.910;8.878;2023-04-23T06:20:53;98947.81;;;16.44;52.34
26823;BME280;14852;51.910;8.878;2023-04-23T06:23:21;98944.66;;;16.60;52.33
26823;BME280;14852;51.910;8.878;2023-04-23T06:25:47;98943.28;;;16.94;51.00
26823;BME280;14852;51.910;8.878;2023-04-23T06:28:12;98931.66;;;17.53;49.71
26823;BME280;14852;51.910;8.878;2023-04-23T06:30:51;98932.03;;;19.20;46.11
26823;BME280;14852;51.910;8.878;2023-04-23T06:33:17;98927.78;;;21.18;42.87
26823;BME280;14852;51.910;8.878;2023-04-23T06:35:43;98911.75;;;22.67;40.16
26823;BME280;14852;51.910;8.878;2023-04-23T06:38:09;98909.28;;;23.85;38.13
26823;BME280;14852;51.910;8.878;2023-04-23T06:40:34;98906.78;;;24.98;36.27
26823;BME280;14852;51.910;8.878;2023-04-23T06:43:00;98903.75;;;25.36;36.33
26823;BME280;14852;51.910;8.878;2023-04-23T06:45:47;98903.13;;;26.16;35.24
26823;BME280;14852;51.910;8.878;2023-04-23T06:48:13;98901.19;;;26.90;34.76
26823;BME280;14852;51.910;8.878;2023-04-23T06:50:39;98894.81;;;28.02;33.64
26823;BME280;14852;51.910;8.878;2023-04-23T06:53:05;98891.38;;;28.89;32.05
26823;BME280;14852;51.910;8.878;2023-04-23T06:55:31;98886.88;;;29.51;31.25
26823;BME280;14852;51.910;8.878;2023-04-23T06:57:57;98880.22;;;29.90;31.33
26823;BME280;14852;51.910;8.878;2023-04-23T07:00:23;98884.72;;;30.56;30.32
26823;BME280;14852;51.910;8.878;2023-04-23T07:02:50;98873.44;;;31.36;29.73
26823;BME280;14852;51.910;8.878;2023-04-23T07:05:16;98866.50;;;32.03;28.14
26823;BME280;14852;51.910;8.878;2023-04-23T07:07:42;98866.50;;;32.03;27.97
26823;BME280;14852;51.910;8.878;2023-04-23T07:10:12;98857.66;;;32.19;28.63
26823;BME280;14852;51.910;8.878;2023-04-23T07:12:38;98850.03;;;31.71;27.76
26823;BME280;14852;51.910;8.878;2023-04-23T07:15:05;98854.28;;;30.62;29.28
26823;BME280;14852;51.910;8.878;2023-04-23T07:17:31;98856.88;;;30.80;28.85
26823;BME280;14852;51.910;8.878;2023-04-23T07:19:57;98863.78;;;29.86;29.02
26823;BME280;14852;51.910;8.878;2023-04-23T07:22:24;98862.03;;;29.62;29.25
26823;BME280;14852;51.910;8.878;2023-04-23T07:24:51;98863.63;;;29.08;30.53
26823;BME280;14852;51.910;8.878;2023-04-23T07:27:17;98865.78;;;30.09;28.73
26823;BME280;14852;51.910;8.878;2023-04-23T07:29:43;98851.25;;;31.28;27.58
26823;BME280;14852;51.910;8.878;2023-04-23T07:32:09;98853.25;;;32.13;25.69
26823;BME280;14852;51.910;8.878;2023-04-23T07:34:35;98855.78;;;32.82;24.93
26823;BME280;14852;51.910;8.878;2023-04-23T07:37:02;98855.06;;;32.86;24.66
26823;BME280;14852;51.910;8.878;2023-04-23T07:39:28;98837.69;;;33.32;24.32
26823;BME280;14852;51.910;8.878;2023-04-23T07:41:54;98833.00;;;33.66;23.60
26823;BME280;14852;51.910;8.878;2023-04-23T07:44:21;98825.66;;;33.84;23.18
26823;BME280;14852;51.910;8.878;2023-04-23T07:46:47;98834.47;;;34.01;23.58
26823;BME280;14852;51.910;8.878;2023-04-23T07:49:13;98832.50;;;34.50;22.42
26823;BME280;14852;51.910;8.878;2023-04-23T07:51:38;98839.78;;;34.23;22.43
26823;BME280;14852;51.910;8.878;2023-04-23T07:54:04;98827.03;;;34.40;22.51
26823;BME280;14852;51.910;8.878;2023-04-23T07:56:30;98826.00;;;34.46;21.88
26823;BME280;14852;51.910;8.878;2023-04-23T07:58:58;98820.69;;;34.56;22.13
26823;BME280;14852;51.910;8.878;2023-04-23T08:01:24;98828.00;;;34.98;21.90
26823;BME280;14852;51.910;8.878;2023-04-23T08:03:50;98821.59;;;35.09;21.36
26823;BME280;14852;51.910;8.878;2023-04-23T08:06:17;98812.28;;;35.32;20.96
26823;BME280;14852;51.910;8.878;2023-04-23T08:08:43;98815.53;;;35.34;20.85
26823;BME280;14852;51.910;8.878;2023-04-23T08:11:09;98810.47;;;35.52;20.30
26823;BME280;14852;51.910;8.878;2023-04-23T08:13:36;98803.81;;;35.80;20.28
26823;BME280;14852;51.910;8.878;2023-04-23T08:16:02;98800.06;;;35.91;19.87
26823;BME280;14852;51.910;8.878;2023-04-23T08:18:28;98796.28;;;35.87;19.88
26823;BME280;14852;51.910;8.878;2023-04-23T08:20:54;98801.88;;;35.71;20.09
26823;BME280;14852;51.910;8.878;2023-04-23T08:23:20;98802.50;;;35.88;19.88
26823;BME280;14852;51.910;8.878;2023-04-23T08:25:46;98800.34;;;36.10;20.31
26823;BME280;14852;51.910;8.878;2023-04-23T08:28:12;98803.06;;;36.36;20.07
26823;BME280;14852;51.910;8.878;2023-04-23T08:30:38;98798.22;;;36.27;19.79
26823;BME280;14852;51.910;8.878;2023-04-23T08:33:04;98793.91;;;36.21;20.30
26823;BME280;14852;51.910;8.878;2023-04-23T08:35:29;98791.41;;;36.05;19.82
26823;BME280;14852;51.910;8.878;2023-04-23T08:37:55;98793.47;;;35.52;20.41
26823;BME280;14852;51.910;8.878;2023-04-23T08:40:21;98799.56;;;34.80;20.98
26823;BME280;14852;51.910;8.878;2023-04-23T08:42:57;98806.13;;;33.28;21.74
26823;BME280;14852;51.910;8.878;2023-04-23T08:45:24;98817.38;;;32.53;23.06
26823;BME280;14852;51.910;8.878;2023-04-23T08:47:50;98816.25;;;32.03;23.58
26823;BME280;14852;51.910;8.878;2023-04-23T08:50:18;98821.66;;;31.00;24.74
26823;BME280;14852;51.910;8.878;2023-04-23T08:52:56;98823.44;;;29.70;26.49
26823;BME280;14852;51.910;8.878;2023-04-23T08:55:23;98830.66;;;28.40;27.83
26823;BME280;14852;51.910;8.878;2023-04-23T08:57:50;98834.13;;;27.78;28.82
26823;BME280;14852;51.910;8.878;2023-04-23T09:00:19;98829.59;;;27.20;29.54
26823;BME280;14852;51.910;8.878;2023-04-23T09:02:47;98827.16;;;26.79;30.05
26823;BME280;14852;51.910;8.878;2023-04-23T09:05:13;98824.31;;;26.48;30.99
26823;BME280;14852;51.910;8.878;2023-04-23T09:07:40;98825.53;;;26.45;31.00
26823;BME280;14852;51.910;8.878;2023-04-23T09:10:09;98822.47;;;26.61;30.74
26823;BME280;14852;51.910;8.878;2023-04-23T09:12:38;98827.38;;;26.45;31.11
26823;BME280;14852;51.910;8.878;2023-04-23T09:15:05;98814.50;;;26.42;30.96
26823;BME280;14852;51.910;8.878;2023-04-23T09:17:40;98815.31;;;26.29;31.30
26823;BME280;14852;51.910;8.878;2023-04-23T09:20:07;98812.63;;;26.36;31.35
26823;BME280;14852;51.910;8.878;2023-04-23T09:22:50;98811.78;;;26.15;31.69
26823;BME280;14852;51.910;8.878;2023-04-23T09:25:22;98804.75;;;25.81;31.88
26823;BME280;14852;51.910;8.878;2023-04-23T09:27:50;98807.59;;;25.80;31.64
26823;BME280;14852;51.910;8.878;2023-04-23T09:30:17;98800.66;;;25.92;31.51
26823;BME280;14852;51.910;8.878;2023-04-23T09:32:45;98793.28;;;25.87;31.46
26823;BME280;14852;51.910;8.878;2023-04-23T09:35:14;98792.50;;;25.93;31.51
26823;BME280;14852;51.910;8.878;2023-04-23T09:37:45;98782.66;;;26.01;31.79
26823;BME280;14852;51.910;8.878;2023-04-23T09:40:17;98790.44;;;26.09;31.64
26823;BME280;14852;51.910;8.878;2023-04-23T09:42:51;98781.06;;;26.26;31.31
26823;BME280;14852;51.910;8.878;2023-04-23T09:45:20;98786.59;;;26.31;31.49
26823;BME280;14852;51.910;8.878;2023-04-23T09:47:57;98773.50;;;26.49;31.46
26823;BME280;14852;51.910;8.878;2023-04-23T09:52:59;98780.63;;;26.03;31.33
26823;BME280;14852;51.910;8.878;2023-04-23T09:55:33;98781.19;;;25.78;31.65
26823;BME280;14852;51.910;8.878;2023-04-23T09:58:03;98782.84;;;25.86;31.92
26823;BME280;14852;51.910;8.878;2023-04-23T10:00:33;98780.19;;;25.99;31.69
26823;BME280;14852;51.910;8.878;2023-04-23T10:02:59;98782.00;;;25.85;31.98
26823;BME280;14852;51.910;8.878;2023-04-23T10:05:26;98776.75;;;25.44;31.94
26823;BME280;14852;51.910;8.878;2023-04-23T10:07:52;98778.34;;;25.39;32.12
26823;BME280;14852;51.910;8.878;2023-04-23T10:10:18;98778.25;;;25.60;31.65
26823;BME280;14852;51.910;8.878;2023-04-23T10:12:46;98779.31;;;25.66;32.15
26823;BME280;14852;51.910;8.878;2023-04-23T10:15:13;98777.88;;;25.63;32.05
26823;BME280;14852;51.910;8.878;2023-04-23T10:17:40;98776.66;;;25.66;31.69
26823;BME280;14852;51.910;8.878;2023-04-23T10:20:08;98784.34;;;25.54;31.65
26823;BME280;14852;51.910;8.878;2023-04-23T10:22:36;98792.47;;;25.39;31.48
26823;BME280;14852;51.910;8.878;2023-04-23T10:25:10;98788.34;;;25.23;31.97
26823;BME280;14852;51.910;8.878;2023-04-23T10:27:42;98783.38;;;25.14;31.95
26823;BME280;14852;51.910;8.878;2023-04-23T10:30:10;98777.38;;;25.05;31.60
26823;BME280;14852;51.910;8.878;2023-04-23T10:32:38;98778.53;;;24.89;31.67
26823;BME280;14852;51.910;8.878;2023-04-23T10:35:05;98772.28;;;24.76;31.96
26823;BME280;14852;51.910;8.878;2023-04-23T10:37:32;98776.06;;;24.88;32.14
26823;BME280;14852;51.910;8.878;2023-04-23T10:40:09;98775.19;;;25.15;32.00
26823;BME280;14852;51.910;8.878;2023-04-23T10:42:42;98773.78;;;25.19;32.17
26823;BME280;14852;51.910;8.878;2023-04-23T10:45:14;98762.84;;;25.42;32.46
26823;BME280;14852;51.910;8.878;2023-04-23T10:47:42;98758.84;;;25.66;31.80
26823;BME280;14852;51.910;8.878;2023-04-23T10:50:28;98754.56;;;25.85;31.54
26823;BME280;14852;51.910;8.878;2023-04-23T10:52:55;98751.09;;;25.78;31.41
26823;BME280;14852;51.910;8.878;2023-04-23T10:55:27;98748.69;;;25.96;30.93
26823;BME280;14852;51.910;8.878;2023-04-23T10:58:04;98746.00;;;26.03;31.39
26823;BME280;14852;51.910;8.878;2023-04-23T11:03:43;98753.84;;;26.37;31.34
26823;BME280;14852;51.910;8.878;2023-04-23T11:06:19;98754.06;;;26.42;31.03
26823;BME280;14852;51.910;8.878;2023-04-23T11:09:38;98741.09;;;25.93;30.83
26823;BME280;14852;51.910;8.878;2023-04-23T11:14:52;98757.94;;;24.98;31.16
26823;BME280;14852;51.910;8.878;2023-04-23T11:20:05;98746.56;;;24.76;32.27
26823;BME280;14852;51.910;8.878;2023-04-23T11:22:40;98761.72;;;24.54;32.58
26823;BME280;14852;51.910;8.878;2023-04-23T11:25:12;98765.78;;;24.23;33.04
26823;BME280;14852;51.910;8.878;2023-04-23T11:27:42;98761.56;;;24.13;33.65
26823;BME280;14852;51.910;8.878;2023-04-23T11:32:48;98763.66;;;24.18;32.94
26823;BME280;14852;51.910;8.878;2023-04-23T11:35:16;98752.56;;;24.29;33.11
26823;BME280;14852;51.910;8.878;2023-04-23T11:37:43;98752.28;;;24.45;33.24
26823;BME280;14852;51.910;8.878;2023-04-23T11:40:12;98744.59;;;24.57;32.46
26823;BME280;14852;51.910;8.878;2023-04-23T11:42:52;98748.31;;;24.69;32.34
26823;BME280;14852;51.910;8.878;2023-04-23T11:45:26;98746.34;;;24.78;32.09
26823;BME280;14852;51.910;8.878;2023-04-23T11:47:56;98751.41;;;24.66;31.75
26823;BME280;14852;51.910;8.878;2023-04-23T11:50:29;98745.38;;;24.58;32.14
26823;BME280;14852;51.910;8.878;2023-04-23T11:53:07;98739.00;;;24.45;31.55
26823;BME280;14852;51.910;8.878;2023-04-23T11:55:34;98736.72;;;24.42;32.11
26823;BME280;14852;51.910;8.878;2023-04-23T11:57:59;98720.59;;;24.44;31.28
26823;BME280;14852;51.910;8.878;2023-04-23T12:00:26;98728.94;;;24.41;31.71
26823;BME280;14852;51.910;8.878;2023-04-23T12:03:00;98725.38;;;24.27;31.68
26823;BME280;14852;51.910;8.878;2023-04-23T12:05:35;98742.31;;;24.05;31.55
26823;BME280;14852;51.910;8.878;2023-04-23T12:08:15;98756.28;;;23.92;31.94
26823;BME280;14852;51.910;8.878;2023-04-23T12:10:50;98769.84;;;23.82;32.42
26823;BME280;14852;51.910;8.878;2023-04-23T12:13:25;98780.25;;;23.48;32.66
26823;BME280;14852;51.910;8.878;2023-04-23T12:15:56;98767.16;;;23.10;34.31
26823;BME280;14852;51.910;8.878;2023-04-23T12:18:39;98747.25;;;22.85;34.81
26823;BME280;14852;51.910;8.878;2023-04-23T12:21:13;98751.22;;;22.66;35.17
26823;BME280;14852;51.910;8.878;2023-04-23T12:23:41;98747.38;;;22.54;36.09
26823;BME280;14852;51.910;8.878;2023-04-23T12:26:14;98731.50;;;22.54;35.68
26823;BME280;14852;51.910;8.878;2023-04-23T12:28:50;98731.22;;;22.49;35.60
26823;BME280;14852;51.910;8.878;2023-04-23T12:31:20;98729.19;;;22.51;36.14
26823;BME280;14852;51.910;8.878;2023-04-23T12:33:46;98726.84;;;22.56;36.00
26823;BME280;14852;51.910;8.878;2023-04-23T12:36:14;98721.09;;;22.67;36.18
26823;BME280;14852;51.910;8.878;2023-04-23T12:38:41;98717.66;;;22.82;35.86
26823;BME280;14852;51.910;8.878;2023-04-23T12:41:07;98716.19;;;22.94;36.17
26823;BME280;14852;51.910;8.878;2023-04-23T12:43:33;98718.81;;;23.08;35.43
26823;BME280;14852;51.910;8.878;2023-04-23T12:45:58;98717.63;;;23.11;35.24
26823;BME280;14852;51.910;8.878;2023-04-23T12:48:24;98725.16;;;23.07;34.84
26823;BME280;14852;51.910;8.878;2023-04-23T12:50:50;98714.09;;;23.04;34.81
26823;BME280;14852;51.910;8.878;2023-04-23T12:53:17;98710.25;;;23.06;35.05
26823;BME280;14852;51.910;8.878;2023-04-23T12:55:43;98705.91;;;23.20;34.33
26823;BME280;14852;51.910;8.878;2023-04-23T12:58:10;98711.41;;;23.19;33.65
26823;BME280;14852;51.910;8.878;2023-04-23T13:00:35;98703.25;;;23.20;33.37
26823;BME280;14852;51.910;8.878;2023-04-23T13:03:01;98695.56;;;23.25;33.27
26823;BME280;14852;51.910;8.878;2023-04-23T13:05:27;98689.00;;;23.21;33.63
26823;BME280;14852;51.910;8.878;2023-04-23T13:07:53;98688.28;;;23.13;33.55
26823;BME280;14852;51.910;8.878;2023-04-23T13:10:19;98683.47;;;23.01;33.07
26823;BME280;14852;51.910;8.878;2023-04-23T13:12:45;98689.97;;;22.99;33.14
26823;BME280;14852;51.910;8.878;2023-04-23T13:15:11;98680.00;;;23.01;33.17
26823;BME280;14852;51.910;8.878;2023-04-23T13:17:39;98674.50;;;23.17;33.11